Terminal Aerodrome Forecast
Issued by NWS

Home | Current Version | Previous Version | Text Only | Print | Product List | Glossary On
Versions: 1 2 3 4 5 6 7 8 9 10 11 12 13 14 15 16
000
FTUS43 KIND 230800 AAA
TAFBMG
TAF AMD
KBMG 230811Z 2308/2406 02005KT P6SM SKC
     FM231400 06006KT P6SM BKN250
     FM240100 08003KT P6SM OVC200
      AMD LTD TO CLD VIS AND WIND TIL 231300=

USA.gov is the U.S. government's official web portal to all federal, state and local government web resources and services.